createdAt,value
2023-02-27T00:12:48.309Z,-3.90
2023-02-27T00:16:26.870Z,-3.88
2023-02-27T00:19:46.027Z,-3.84
2023-02-27T00:23:04.236Z,-3.83
2023-02-27T00:26:23.767Z,-3.87
2023-02-27T00:33:31.681Z,-3.93
2023-02-27T00:36:59.514Z,-3.90
2023-02-27T00:40:16.827Z,-3.90
2023-02-27T00:43:34.231Z,-3.93
2023-02-27T00:47:18.733Z,-3.91
2023-02-27T00:50:44.532Z,-3.83
2023-02-27T00:54:10.190Z,-3.78
2023-02-27T00:57:36.213Z,-3.74
2023-02-27T01:01:02.308Z,-3.72
2023-02-27T01:04:29.252Z,-3.74
2023-02-27T01:07:55.136Z,-3.77
2023-02-27T01:11:20.920Z,-3.77
2023-02-27T01:14:50.812Z,-3.79
2023-02-27T01:18:16.696Z,-3.79
2023-02-27T01:21:43.479Z,-3.79
2023-02-27T01:25:10.078Z,-3.82
2023-02-27T01:28:35.860Z,-3.84
2023-02-27T01:32:01.907Z,-3.85
2023-02-27T01:35:27.518Z,-3.90
2023-02-27T01:38:53.331Z,-3.93
2023-02-27T01:42:21.347Z,-3.98
2023-02-27T01:45:48.968Z,-4.04
2023-02-27T01:49:18.002Z,-4.10
2023-02-27T01:52:45.166Z,-4.16
2023-02-27T01:56:13.728Z,-4.24
2023-02-27T01:59:41.439Z,-4.29
2023-02-27T02:03:03.690Z,-4.33
2023-02-27T02:06:30.897Z,-4.39
2023-02-27T02:09:59.174Z,-4.45
2023-02-27T02:13:25.195Z,-4.46
2023-02-27T02:17:01.536Z,-4.47
2023-02-27T02:20:46.461Z,-4.47
2023-02-27T02:24:34.414Z,-4.48
2023-02-27T02:28:10.035Z,-4.50
2023-02-27T02:31:47.316Z,-4.54
2023-02-27T02:35:26.437Z,-4.56
2023-02-27T02:38:58.148Z,-4.59
2023-02-27T02:42:26.111Z,-4.64
2023-02-27T02:45:57.376Z,-4.73
2023-02-27T02:49:26.506Z,-4.83
2023-02-27T02:52:56.137Z,-4.94
2023-02-27T02:56:25.545Z,-5.05
2023-02-27T02:59:54.584Z,-5.18
2023-02-27T03:03:27.143Z,-5.26
2023-02-27T03:06:55.831Z,-5.32
2023-02-27T03:10:24.338Z,-5.35
2023-02-27T03:13:52.374Z,-5.37
2023-02-27T03:17:20.035Z,-5.34
2023-02-27T03:20:48.465Z,-5.28
2023-02-27T03:24:16.111Z,-5.20
2023-02-27T03:27:44.465Z,-5.13
2023-02-27T03:31:14.936Z,-5.06
2023-02-27T03:34:41.455Z,-4.98
2023-02-27T03:38:11.902Z,-4.89
2023-02-27T03:41:40.646Z,-4.77
2023-02-27T03:45:15.769Z,-4.64
2023-02-27T03:48:44.573Z,-4.55
2023-02-27T03:52:10.447Z,-4.44
2023-02-27T03:55:39.424Z,-4.36
2023-02-27T03:59:05.385Z,-4.26
2023-02-27T04:02:31.367Z,-4.16
2023-02-27T04:06:16.980Z,-4.03
2023-02-27T04:09:51.240Z,-3.90
2023-02-27T04:13:29.713Z,-3.82
2023-02-27T04:17:05.271Z,-3.77
2023-02-27T04:20:38.059Z,-3.72
2023-02-27T04:24:06.464Z,-3.67
2023-02-27T04:27:37.049Z,-3.61
2023-02-27T04:31:06.530Z,-3.53
2023-02-27T04:34:34.555Z,-3.46
2023-02-27T04:38:01.940Z,-3.42
2023-02-27T04:41:30.303Z,-3.41
2023-02-27T04:44:57.857Z,-3.37
2023-02-27T04:48:25.075Z,-3.32
2023-02-27T04:51:54.277Z,-3.26
2023-02-27T04:56:10.186Z,-3.21
2023-02-27T04:59:15.923Z,-3.16
2023-02-27T05:02:44.494Z,-3.14
2023-02-27T05:06:11.604Z,-3.09
2023-02-27T05:09:39.742Z,-3.04
2023-02-27T05:13:07.522Z,-2.99
2023-02-27T05:16:34.508Z,-2.97
2023-02-27T05:20:00.625Z,-2.96
2023-02-27T05:23:35.900Z,-2.95
2023-02-27T05:27:13.762Z,-2.91
2023-02-27T05:30:42.162Z,-2.86
2023-02-27T05:34:10.963Z,-2.81
2023-02-27T05:37:40.772Z,-2.79
2023-02-27T05:41:09.344Z,-2.77
2023-02-27T05:44:36.509Z,-2.73
2023-02-27T05:48:04.882Z,-2.67
2023-02-27T05:51:33.165Z,-2.63
2023-02-27T05:55:01.714Z,-2.63
2023-02-27T05:58:28.781Z,-2.63
2023-02-27T06:01:54.773Z,-2.59
2023-02-27T06:05:21.257Z,-2.58
2023-02-27T06:08:47.533Z,-2.57
2023-02-27T06:12:13.674Z,-2.51
2023-02-27T06:15:39.823Z,-2.46
2023-02-27T06:19:05.963Z,-2.43
2023-02-27T06:22:32.874Z,-2.40
2023-02-27T06:25:58.656Z,-2.34
2023-02-27T06:29:24.751Z,-2.28
2023-02-27T06:32:50.676Z,-2.20
2023-02-27T06:36:16.370Z,-2.15
2023-02-27T06:39:42.088Z,-2.08
2023-02-27T06:43:07.791Z,-1.99
2023-02-27T06:46:33.690Z,-1.89
2023-02-27T06:49:59.476Z,-1.79
2023-02-27T06:53:25.595Z,-1.72
2023-02-27T06:56:52.045Z,-1.61
2023-02-27T07:00:18.369Z,-1.47
2023-02-27T07:03:44.182Z,-1.32
2023-02-27T07:07:35.353Z,-1.19
2023-02-27T07:10:55.924Z,-1.08
2023-02-27T07:14:21.989Z,-0.99
2023-02-27T07:17:38.163Z,-0.87
2023-02-27T07:21:04.289Z,-0.76
2023-02-27T07:24:30.184Z,-0.68
2023-02-27T07:27:56.059Z,-0.62
2023-02-27T07:31:21.871Z,-0.59
2023-02-27T07:34:47.976Z,-0.50
2023-02-27T07:38:13.809Z,-0.43
2023-02-27T07:41:39.691Z,-0.39
2023-02-27T07:45:06.022Z,-0.33
2023-02-27T07:48:31.805Z,-0.23
2023-02-27T07:51:57.727Z,-0.12
2023-02-27T07:55:16.366Z,-0.02
2023-02-27T07:58:42.016Z,0.10
2023-02-27T08:02:08.014Z,0.24
2023-02-27T08:05:33.688Z,0.38
2023-02-27T08:08:59.505Z,0.53
2023-02-27T08:12:25.282Z,0.65
2023-02-27T08:15:51.203Z,0.71
2023-02-27T08:19:17.308Z,0.82
2023-02-27T08:22:42.173Z,0.95
2023-02-27T08:26:08.081Z,1.09
2023-02-27T08:29:33.963Z,1.14
2023-02-27T08:32:59.735Z,1.27
2023-02-27T08:36:25.787Z,1.40
2023-02-27T08:39:51.639Z,1.53
2023-02-27T08:43:17.218Z,1.68
2023-02-27T08:46:42.830Z,1.79
2023-02-27T08:50:09.569Z,1.90
2023-02-27T08:53:44.026Z,1.99
2023-02-27T08:57:09.866Z,2.10
2023-02-27T09:00:35.631Z,2.27
2023-02-27T09:04:01.578Z,2.39
2023-02-27T09:07:27.243Z,2.52
2023-02-27T09:10:52.783Z,2.52
2023-02-27T09:14:18.861Z,2.55
2023-02-27T09:17:45.372Z,2.66
2023-02-27T09:21:11.521Z,2.77
2023-02-27T09:24:37.347Z,2.78
2023-02-27T09:28:02.941Z,2.80
2023-02-27T09:31:32.670Z,2.90
2023-02-27T09:34:58.990Z,3.03
2023-02-27T09:38:24.689Z,3.19
2023-02-27T09:41:58.532Z,3.19
2023-02-27T09:45:19.100Z,3.19
2023-02-27T09:48:47.876Z,3.14
2023-02-27T09:52:15.402Z,3.10
2023-02-27T09:55:42.671Z,3.13
2023-02-27T09:59:14.109Z,3.26
2023-02-27T10:02:45.576Z,3.47
2023-02-27T10:06:11.777Z,3.59
2023-02-27T10:09:42.773Z,3.68
2023-02-27T10:13:21.832Z,3.82
2023-02-27T10:16:49.502Z,3.88
2023-02-27T10:20:21.440Z,3.91
2023-02-27T10:23:50.613Z,3.92
2023-02-27T10:27:17.222Z,3.85
2023-02-27T10:30:42.999Z,3.77
2023-02-27T10:34:13.522Z,3.64
2023-02-27T10:37:32.008Z,3.59
2023-02-27T10:40:58.986Z,3.58
2023-02-27T10:44:18.700Z,3.73
2023-02-27T10:47:44.758Z,4.01
2023-02-27T10:51:24.214Z,4.20
2023-02-27T10:54:49.910Z,4.34
2023-02-27T10:58:20.737Z,4.46
2023-02-27T11:01:48.242Z,4.53
2023-02-27T11:05:20.372Z,4.54
2023-02-27T11:08:45.977Z,4.57
2023-02-27T11:12:28.510Z,4.59
2023-02-27T11:16:01.766Z,4.69
2023-02-27T11:19:33.448Z,4.68
2023-02-27T11:23:05.439Z,4.65
2023-02-27T11:26:57.431Z,4.48
2023-02-27T11:30:27.072Z,4.33
2023-02-27T11:33:54.633Z,4.23
2023-02-27T11:37:23.987Z,4.22
2023-02-27T11:40:52.286Z,4.25
2023-02-27T11:44:49.681Z,4.18
2023-02-27T11:48:11.883Z,4.08
2023-02-27T11:51:48.081Z,3.98
2023-02-27T11:55:18.104Z,3.89
2023-02-27T11:58:45.588Z,3.87
2023-02-27T12:02:16.458Z,3.87
2023-02-27T12:05:45.345Z,3.85
2023-02-27T12:09:21.158Z,3.86
2023-02-27T12:12:49.004Z,3.90
2023-02-27T12:16:24.822Z,3.92
2023-02-27T12:19:56.844Z,3.89
2023-02-27T12:23:25.089Z,3.90
2023-02-27T12:26:54.977Z,3.88
2023-02-27T12:30:23.399Z,3.87
2023-02-27T12:33:51.844Z,3.79
2023-02-27T12:37:25.155Z,3.78
2023-02-27T12:40:59.782Z,3.65
2023-02-27T12:44:34.512Z,3.46
2023-02-27T12:48:05.461Z,3.33
2023-02-27T12:51:42.314Z,3.29
2023-02-27T12:55:13.499Z,3.20
2023-02-27T12:58:43.726Z,3.23
2023-02-27T13:02:30.457Z,3.30
2023-02-27T13:05:54.590Z,3.41
2023-02-27T13:09:26.642Z,3.52
2023-02-27T13:12:56.630Z,3.54
2023-02-27T13:16:37.575Z,3.53
2023-02-27T13:20:06.233Z,3.60
2023-02-27T13:23:36.581Z,3.59
2023-02-27T13:27:04.828Z,3.68
2023-02-27T13:30:33.754Z,3.68
2023-02-27T13:34:08.485Z,3.69
2023-02-27T13:37:47.671Z,3.63
2023-02-27T13:41:28.099Z,3.61
2023-02-27T13:44:54.664Z,3.55
2023-02-27T13:48:40.080Z,3.53
2023-02-27T13:52:05.901Z,3.44
2023-02-27T13:55:35.247Z,3.43
2023-02-27T13:59:11.438Z,3.49
2023-02-27T14:02:56.447Z,3.54
2023-02-27T14:06:24.405Z,3.54
2023-02-27T14:09:52.119Z,3.46
2023-02-27T14:13:31.279Z,3.36
2023-02-27T14:21:09.191Z,3.11
2023-02-27T14:24:38.299Z,3.13
2023-02-27T14:28:19.636Z,3.13
2023-02-27T14:32:05.591Z,3.09
2023-02-27T14:35:31.522Z,3.04
2023-02-27T14:38:58.314Z,2.95
2023-02-27T14:42:31.052Z,2.85
2023-02-27T14:45:57.155Z,2.73
2023-02-27T14:49:26.271Z,2.62
2023-02-27T14:52:51.948Z,2.57
2023-02-27T14:56:20.301Z,2.52
2023-02-27T14:59:35.357Z,2.49
2023-02-27T15:03:01.735Z,2.46
2023-02-27T15:06:32.513Z,2.41
2023-02-27T15:09:59.304Z,2.34
2023-02-27T15:13:27.293Z,2.26
2023-02-27T15:16:56.695Z,2.38
2023-02-27T15:20:27.552Z,2.51
2023-02-27T15:23:57.146Z,2.42
2023-02-27T15:27:23.770Z,2.28
2023-02-27T15:30:50.596Z,2.16
2023-02-27T15:34:00.118Z,2.06
2023-02-27T15:37:27.179Z,1.98
2023-02-27T15:40:53.057Z,1.90
2023-02-27T15:44:21.658Z,1.81
2023-02-27T15:47:47.463Z,1.75
2023-02-27T15:51:14.428Z,1.67
2023-02-27T15:54:44.288Z,1.59
2023-02-27T15:58:03.796Z,1.54
2023-02-27T16:01:32.328Z,1.50
2023-02-27T16:04:58.776Z,1.47
2023-02-27T16:08:28.514Z,1.42
2023-02-27T16:12:07.858Z,1.37
2023-02-27T16:15:34.867Z,1.34
2023-02-27T16:19:02.688Z,1.31
2023-02-27T16:22:30.760Z,1.28
2023-02-27T16:26:02.717Z,1.24
2023-02-27T16:29:33.751Z,1.19
2023-02-27T16:32:59.951Z,1.15
2023-02-27T16:36:19.777Z,1.11
2023-02-27T16:39:45.453Z,1.07
2023-02-27T16:43:11.688Z,1.02
2023-02-27T16:46:37.651Z,0.97
2023-02-27T16:50:10.526Z,0.94
2023-02-27T16:54:27.548Z,0.90
2023-02-27T16:57:58.167Z,0.86
2023-02-27T17:01:35.341Z,0.81
2023-02-27T17:04:52.358Z,0.77
2023-02-27T17:08:22.914Z,0.72
2023-02-27T17:11:47.263Z,0.69
2023-02-27T17:19:15.336Z,0.61
2023-02-27T17:22:42.196Z,0.57
2023-02-27T17:26:07.881Z,0.53
2023-02-27T17:29:23.984Z,0.48
2023-02-27T17:32:49.791Z,0.41
2023-02-27T17:36:15.477Z,0.30
2023-02-27T17:39:44.266Z,0.17
2023-02-27T17:46:45.431Z,-0.15
2023-02-27T17:50:12.144Z,-0.31
2023-02-27T17:53:38.180Z,-0.48
2023-02-27T17:57:04.937Z,-0.64
2023-02-27T18:00:30.935Z,-0.76
2023-02-27T18:03:57.083Z,-0.88
2023-02-27T18:07:23.242Z,-0.98
2023-02-27T18:10:31.507Z,-1.06
2023-02-27T18:13:57.197Z,-1.12
2023-02-27T18:17:02.864Z,-1.17
2023-02-27T18:20:28.507Z,-1.23
2023-02-27T18:23:54.154Z,-1.27
2023-02-27T18:27:07.063Z,-1.31
2023-02-27T18:30:34.106Z,-1.35
2023-02-27T18:33:58.314Z,-1.39
2023-02-27T18:37:14.940Z,-1.42
2023-02-27T18:40:40.826Z,-1.44
2023-02-27T18:44:05.112Z,-1.46
2023-02-27T18:47:13.529Z,-1.46
2023-02-27T18:50:21.702Z,-1.45
2023-02-27T18:53:48.529Z,-1.43
2023-02-27T18:57:03.047Z,-1.41
2023-02-27T19:00:19.483Z,-1.39
2023-02-27T19:03:45.217Z,-1.36
2023-02-27T19:07:10.937Z,-1.34
2023-02-27T19:10:16.707Z,-1.31
2023-02-27T19:13:34.365Z,-1.30
2023-02-27T19:17:07.464Z,-1.30
2023-02-27T19:20:25.048Z,-1.32
2023-02-27T19:23:50.873Z,-1.33
2023-02-27T19:27:07.576Z,-1.29
2023-02-27T19:30:13.993Z,-1.27
2023-02-27T19:33:30.717Z,-1.25
2023-02-27T19:36:36.285Z,-1.22
2023-02-27T19:39:45.232Z,-1.23
2023-02-27T19:42:51.418Z,-1.26
2023-02-27T19:46:08.783Z,-1.30
2023-02-27T19:49:34.424Z,-1.35
2023-02-27T19:52:50.269Z,-1.38
2023-02-27T19:56:00.056Z,-1.40
2023-02-27T19:59:18.338Z,-1.40
2023-02-27T20:02:27.380Z,-1.41
2023-02-27T20:05:37.830Z,-1.41
2023-02-27T20:09:03.598Z,-1.41
2023-02-27T20:12:09.431Z,-1.40
2023-02-27T20:15:24.818Z,-1.38
2023-02-27T20:18:31.119Z,-1.37
2023-02-27T20:21:47.678Z,-1.36
2023-02-27T20:24:56.152Z,-1.34
2023-02-27T20:28:23.910Z,-1.31
2023-02-27T20:31:30.471Z,-1.25
2023-02-27T20:34:39.186Z,-1.19
2023-02-27T20:37:44.842Z,-1.14
2023-02-27T20:40:51.018Z,-1.09
2023-02-27T20:43:56.575Z,-1.07
2023-02-27T20:47:12.077Z,-1.06
2023-02-27T20:50:21.842Z,-1.06
2023-02-27T20:53:27.428Z,-1.07
2023-02-27T20:56:54.393Z,-1.09
2023-02-27T21:00:02.295Z,-1.11
2023-02-27T21:03:07.857Z,-1.14
2023-02-27T21:06:14.713Z,-1.18
2023-02-27T21:09:23.446Z,-1.22
2023-02-27T21:12:29.014Z,-1.26
2023-02-27T21:15:36.971Z,-1.27
2023-02-27T21:18:44.253Z,-1.29
2023-02-27T21:22:11.374Z,-1.32
2023-02-27T21:25:40.940Z,-1.39
2023-02-27T21:29:08.373Z,-1.51
2023-02-27T21:32:26.683Z,-1.64
2023-02-27T21:35:53.704Z,-1.80
2023-02-27T21:39:20.329Z,-1.99
2023-02-27T21:42:46.351Z,-2.15
2023-02-27T21:46:13.784Z,-2.32
2023-02-27T21:49:53.791Z,-2.48
2023-02-27T21:53:11.171Z,-2.61
2023-02-27T21:56:50.773Z,-2.73
2023-02-27T22:00:29.628Z,-2.81
2023-02-27T22:04:11.490Z,-2.85
2023-02-27T22:07:30.450Z,-2.88
2023-02-27T22:10:48.572Z,-2.93
2023-02-27T22:14:09.411Z,-3.01
2023-02-27T22:17:29.341Z,-3.07
2023-02-27T22:21:04.765Z,-3.12
2023-02-27T22:24:23.924Z,-3.21
2023-02-27T22:27:41.822Z,-3.28
2023-02-27T22:31:18.745Z,-3.33
2023-02-27T22:34:38.616Z,-3.37
2023-02-27T22:38:01.008Z,-3.42
2023-02-27T22:41:26.595Z,-3.46
2023-02-27T22:44:40.652Z,-3.47
2023-02-27T22:47:59.889Z,-3.48
2023-02-27T22:51:19.514Z,-3.50
2023-02-27T22:54:38.473Z,-3.53
2023-02-27T22:57:58.486Z,-3.63
2023-02-27T23:01:16.784Z,-3.76
2023-02-27T23:04:35.720Z,-3.90
2023-02-27T23:07:54.881Z,-4.05
2023-02-27T23:11:15.601Z,-4.20
2023-02-27T23:14:38.068Z,-4.35
2023-02-27T23:17:58.722Z,-4.48
2023-02-27T23:21:20.228Z,-4.61
2023-02-27T23:24:39.338Z,-4.73
2023-02-27T23:27:57.187Z,-4.84
2023-02-27T23:31:14.206Z,-4.96
2023-02-27T23:35:04.922Z,-5.09
2023-02-27T23:38:30.662Z,-5.21
2023-02-27T23:42:03.243Z,-5.29
2023-02-27T23:45:29.986Z,-5.36
2023-02-27T23:48:56.074Z,-5.43
2023-02-27T23:52:21.609Z,-5.50
2023-02-27T23:55:47.670Z,-5.54
2023-02-27T23:59:14.192Z,-5.57
